sensor_id;sensor_type;location;lat;lon;timestamp;pressure;altitude;pressure_sealevel;temperature;humidity
33506;BME280;19843;51.040;13.782;2024-02-23T00:00:36;97633.56;;;14.11;70.49
33506;BME280;19843;51.040;13.782;2024-02-23T00:03:05;97654.91;;;14.04;70.12
33506;BME280;19843;51.040;13.782;2024-02-23T00:05:33;97655.78;;;14.01;70.27
33506;BME280;19843;51.040;13.782;2024-02-23T00:08:01;97655.41;;;13.99;70.17
33506;BME280;19843;51.040;13.782;2024-02-23T00:10:28;97653.81;;;13.98;70.49
33506;BME280;19843;51.040;13.782;2024-02-23T00:12:56;97653.81;;;13.98;71.08
33506;BME280;19843;51.040;13.782;2024-02-23T00:15:23;97657.34;;;14.02;70.29
33506;BME280;19843;51.040;13.782;2024-02-23T00:17:51;97656.63;;;14.18;70.52
33506;BME280;19843;51.040;13.782;2024-02-23T00:20:20;97657.41;;;13.99;70.86
33506;BME280;19843;51.040;13.782;2024-02-23T00:22:49;97655.13;;;14.14;70.33
33506;BME280;19843;51.040;13.782;2024-02-23T00:25:16;97655.06;;;14.17;69.84
33506;BME280;19843;51.040;13.782;2024-02-23T00:27:44;97650.75;;;14.13;69.38
33506;BME280;19843;51.040;13.782;2024-02-23T00:30:14;97669.53;;;14.16;69.61
33506;BME280;19843;51.040;13.782;2024-02-23T00:32:41;97673.44;;;13.98;70.55
33506;BME280;19843;51.040;13.782;2024-02-23T00:35:09;97672.19;;;14.23;69.03
33506;BME280;19843;51.040;13.782;2024-02-23T00:37:37;97681.75;;;14.45;68.95
33506;BME280;19843;51.040;13.782;2024-02-23T00:40:06;97679.19;;;14.34;69.38
33506;BME280;19843;51.040;13.782;2024-02-23T00:42:34;97671.22;;;14.53;68.32
33506;BME280;19843;51.040;13.782;2024-02-23T00:45:01;97671.22;;;14.53;67.91
33506;BME280;19843;51.040;13.782;2024-02-23T00:47:29;97663.25;;;14.28;68.69
33506;BME280;19843;51.040;13.782;2024-02-23T00:49:56;97667.28;;;14.47;67.82
33506;BME280;19843;51.040;13.782;2024-02-23T00:52:24;97668.47;;;14.49;67.27
33506;BME280;19843;51.040;13.782;2024-02-23T00:54:53;97660.94;;;14.43;67.48
33506;BME280;19843;51.040;13.782;2024-02-23T00:57:20;97666.63;;;14.19;67.59
33506;BME280;19843;51.040;13.782;2024-02-23T00:59:53;97662.59;;;14.00;67.43
33506;BME280;19843;51.040;13.782;2024-02-23T01:02:21;97655.72;;;14.25;65.40
33506;BME280;19843;51.040;13.782;2024-02-23T01:04:49;97649.03;;;14.39;63.57
33506;BME280;19843;51.040;13.782;2024-02-23T01:07:16;97647.09;;;14.55;62.30
33506;BME280;19843;51.040;13.782;2024-02-23T01:09:43;97648.59;;;14.40;62.40
33506;BME280;19843;51.040;13.782;2024-02-23T01:12:12;97655.06;;;14.37;61.06
33506;BME280;19843;51.040;13.782;2024-02-23T01:14:40;97664.56;;;14.63;60.89
33506;BME280;19843;51.040;13.782;2024-02-23T01:17:07;97667.38;;;14.63;60.58
33506;BME280;19843;51.040;13.782;2024-02-23T01:19:35;97678.72;;;14.36;61.70
33506;BME280;19843;51.040;13.782;2024-02-23T01:22:02;97697.88;;;14.21;61.80
33506;BME280;19843;51.040;13.782;2024-02-23T01:24:30;97701.78;;;14.67;60.52
33506;BME280;19843;51.040;13.782;2024-02-23T01:26:58;97707.47;;;14.64;60.22
33506;BME280;19843;51.040;13.782;2024-02-23T01:29:27;97725.38;;;14.70;59.94
33506;BME280;19843;51.040;13.782;2024-02-23T01:31:54;97722.94;;;14.52;60.56
33506;BME280;19843;51.040;13.782;2024-02-23T01:34:22;97730.56;;;14.71;59.62
33506;BME280;19843;51.040;13.782;2024-02-23T01:36:49;97744.84;;;14.37;60.80
33506;BME280;19843;51.040;13.782;2024-02-23T01:39:17;97755.03;;;14.51;58.88
33506;BME280;19843;51.040;13.782;2024-02-23T01:41:45;97766.38;;;14.67;58.09
33506;BME280;19843;51.040;13.782;2024-02-23T01:44:12;97761.16;;;14.66;58.10
33506;BME280;19843;51.040;13.782;2024-02-23T01:46:43;97771.38;;;14.76;57.26
33506;BME280;19843;51.040;13.782;2024-02-23T01:49:10;97767.34;;;14.57;57.19
33506;BME280;19843;51.040;13.782;2024-02-23T01:51:38;97768.16;;;14.77;57.70
33506;BME280;19843;51.040;13.782;2024-02-23T01:54:06;97767.13;;;14.48;58.45
33506;BME280;19843;51.040;13.782;2024-02-23T01:56:35;97774.06;;;14.83;57.21
33506;BME280;19843;51.040;13.782;2024-02-23T01:59:06;97769.22;;;14.83;56.85
33506;BME280;19843;51.040;13.782;2024-02-23T02:01:33;97785.13;;;15.10;56.36
33506;BME280;19843;51.040;13.782;2024-02-23T02:04:02;97797.81;;;14.35;58.48
33506;BME280;19843;51.040;13.782;2024-02-23T02:06:30;97804.78;;;14.90;55.88
33506;BME280;19843;51.040;13.782;2024-02-23T02:08:57;97807.56;;;14.50;57.81
33506;BME280;19843;51.040;13.782;2024-02-23T02:11:25;97800.34;;;14.73;57.52
33506;BME280;19843;51.040;13.782;2024-02-23T02:13:52;97812.13;;;14.64;57.30
33506;BME280;19843;51.040;13.782;2024-02-23T02:16:19;97826.78;;;14.52;57.55
33506;BME280;19843;51.040;13.782;2024-02-23T02:18:47;97834.53;;;14.68;56.68
33506;BME280;19843;51.040;13.782;2024-02-23T02:21:16;97842.03;;;14.27;56.72
33506;BME280;19843;51.040;13.782;2024-02-23T02:23:43;97832.88;;;14.47;56.68
33506;BME280;19843;51.040;13.782;2024-02-23T02:26:11;97852.75;;;14.32;55.97
33506;BME280;19843;51.040;13.782;2024-02-23T02:28:38;97848.84;;;14.53;55.28
33506;BME280;19843;51.040;13.782;2024-02-23T02:31:05;97843.44;;;14.39;54.96
33506;BME280;19843;51.040;13.782;2024-02-23T02:33:33;97849.72;;;14.23;55.65
33506;BME280;19843;51.040;13.782;2024-02-23T02:36:00;97861.72;;;14.24;55.27
33506;BME280;19843;51.040;13.782;2024-02-23T02:38:29;97861.69;;;14.51;54.07
33506;BME280;19843;51.040;13.782;2024-02-23T02:40:57;97872.66;;;14.18;54.48
33506;BME280;19843;51.040;13.782;2024-02-23T02:43:26;97861.25;;;14.05;54.31
33506;BME280;19843;51.040;13.782;2024-02-23T02:45:54;97866.50;;;14.27;54.47
33506;BME280;19843;51.040;13.782;2024-02-23T02:48:21;97873.81;;;14.21;54.33
33506;BME280;19843;51.040;13.782;2024-02-23T02:50:49;97874.97;;;14.23;54.10
33506;BME280;19843;51.040;13.782;2024-02-23T02:53:19;97876.34;;;14.39;53.82
33506;BME280;19843;51.040;13.782;2024-02-23T02:55:48;97893.94;;;14.16;54.46
33506;BME280;19843;51.040;13.782;2024-02-23T02:58:16;97901.31;;;13.79;53.87
33506;BME280;19843;51.040;13.782;2024-02-23T03:00:43;97915.22;;;14.13;54.83
33506;BME280;19843;51.040;13.782;2024-02-23T03:03:11;97933.88;;;13.69;54.87
33506;BME280;19843;51.040;13.782;2024-02-23T03:05:39;97939.25;;;13.87;53.84
33506;BME280;19843;51.040;13.782;2024-02-23T03:08:07;97932.00;;;14.17;54.07
33506;BME280;19843;51.040;13.782;2024-02-23T03:10:34;97924.97;;;13.78;54.29
33506;BME280;19843;51.040;13.782;2024-02-23T03:13:03;97929.22;;;13.86;54.33
33506;BME280;19843;51.040;13.782;2024-02-23T03:15:31;97936.03;;;13.58;54.79
33506;BME280;19843;51.040;13.782;2024-02-23T03:17:59;97946.69;;;13.40;54.95
33506;BME280;19843;51.040;13.782;2024-02-23T03:20:27;97952.19;;;14.04;54.05
33506;BME280;19843;51.040;13.782;2024-02-23T03:22:55;97963.88;;;13.38;55.10
33506;BME280;19843;51.040;13.782;2024-02-23T03:25:23;97953.94;;;13.68;54.90
33506;BME280;19843;51.040;13.782;2024-02-23T03:27:50;97968.41;;;13.28;54.00
33506;BME280;19843;51.040;13.782;2024-02-23T03:30:19;97982.16;;;13.12;55.12
33506;BME280;19843;51.040;13.782;2024-02-23T03:32:46;97983.22;;;13.63;53.90
33506;BME280;19843;51.040;13.782;2024-02-23T03:35:14;97995.28;;;13.22;54.78
33506;BME280;19843;51.040;13.782;2024-02-23T03:37:42;97994.78;;;13.35;54.81
33506;BME280;19843;51.040;13.782;2024-02-23T03:40:09;97987.66;;;13.26;55.65
33506;BME280;19843;51.040;13.782;2024-02-23T03:42:37;97995.25;;;13.26;54.89
33506;BME280;19843;51.040;13.782;2024-02-23T03:45:05;98011.09;;;12.98;54.69
33506;BME280;19843;51.040;13.782;2024-02-23T03:47:34;98020.31;;;12.95;55.20
33506;BME280;19843;51.040;13.782;2024-02-23T03:50:02;98034.09;;;12.75;54.50
33506;BME280;19843;51.040;13.782;2024-02-23T03:52:30;98042.78;;;12.92;53.81
33506;BME280;19843;51.040;13.782;2024-02-23T03:54:57;98058.81;;;12.88;54.26
33506;BME280;19843;51.040;13.782;2024-02-23T03:57:24;98065.75;;;12.72;54.71
33506;BME280;19843;51.040;13.782;2024-02-23T03:59:52;98074.06;;;12.79;53.83
33506;BME280;19843;51.040;13.782;2024-02-23T04:02:20;98079.53;;;12.97;54.46
33506;BME280;19843;51.040;13.782;2024-02-23T04:04:49;98087.97;;;12.90;54.31
33506;BME280;19843;51.040;13.782;2024-02-23T04:07:16;98099.03;;;12.52;54.66
33506;BME280;19843;51.040;13.782;2024-02-23T04:09:44;98126.44;;;12.82;54.70
33506;BME280;19843;51.040;13.782;2024-02-23T04:12:11;98139.50;;;12.41;55.33
33506;BME280;19843;51.040;13.782;2024-02-23T04:14:39;98147.25;;;11.97;53.79
33506;BME280;19843;51.040;13.782;2024-02-23T04:17:07;98147.22;;;12.04;52.46
33506;BME280;19843;51.040;13.782;2024-02-23T04:19:34;98153.69;;;11.87;52.59
33506;BME280;19843;51.040;13.782;2024-02-23T04:22:03;98146.47;;;11.97;51.45
33506;BME280;19843;51.040;13.782;2024-02-23T04:24:31;98146.75;;;12.27;51.24
33506;BME280;19843;51.040;13.782;2024-02-23T04:26:59;98149.09;;;12.33;50.51
33506;BME280;19843;51.040;13.782;2024-02-23T04:29:26;98144.72;;;12.35;50.83
33506;BME280;19843;51.040;13.782;2024-02-23T04:31:54;98146.44;;;12.08;51.72
33506;BME280;19843;51.040;13.782;2024-02-23T04:34:21;98149.22;;;12.00;50.46
33506;BME280;19843;51.040;13.782;2024-02-23T04:36:49;98154.44;;;11.95;50.83
33506;BME280;19843;51.040;13.782;2024-02-23T04:39:18;98152.69;;;12.37;50.20
33506;BME280;19843;51.040;13.782;2024-02-23T04:41:46;98169.66;;;11.69;51.08
33506;BME280;19843;51.040;13.782;2024-02-23T04:44:13;98167.53;;;12.19;49.86
33506;BME280;19843;51.040;13.782;2024-02-23T04:46:40;98170.78;;;12.11;50.16
33506;BME280;19843;51.040;13.782;2024-02-23T04:49:08;98177.63;;;11.74;50.08
33506;BME280;19843;51.040;13.782;2024-02-23T04:51:38;98173.69;;;11.36;50.31
33506;BME280;19843;51.040;13.782;2024-02-23T04:54:05;98208.41;;;11.52;49.88
33506;BME280;19843;51.040;13.782;2024-02-23T04:56:35;98197.63;;;11.40;50.67
33506;BME280;19843;51.040;13.782;2024-02-23T04:59:02;98202.41;;;11.47;49.52
33506;BME280;19843;51.040;13.782;2024-02-23T05:01:35;98214.00;;;11.35;50.28
33506;BME280;19843;51.040;13.782;2024-02-23T05:04:03;98226.78;;;11.50;50.48
33506;BME280;19843;51.040;13.782;2024-02-23T05:06:31;98241.13;;;11.31;51.25
33506;BME280;19843;51.040;13.782;2024-02-23T05:08:58;98261.50;;;11.77;51.07
33506;BME280;19843;51.040;13.782;2024-02-23T05:11:26;98263.84;;;11.22;52.45
33506;BME280;19843;51.040;13.782;2024-02-23T05:13:55;98261.06;;;11.18;51.37
33506;BME280;19843;51.040;13.782;2024-02-23T05:16:22;98264.25;;;11.20;51.96
33506;BME280;19843;51.040;13.782;2024-02-23T05:18:49;98269.06;;;11.31;51.73
33506;BME280;19843;51.040;13.782;2024-02-23T05:21:17;98281.41;;;11.33;51.99
33506;BME280;19843;51.040;13.782;2024-02-23T05:23:44;98270.97;;;10.87;52.76
33506;BME280;19843;51.040;13.782;2024-02-23T05:26:13;98270.69;;;11.49;51.92
33506;BME280;19843;51.040;13.782;2024-02-23T05:28:41;98271.84;;;11.34;52.69
33506;BME280;19843;51.040;13.782;2024-02-23T05:31:10;98277.06;;;11.46;53.02
33506;BME280;19843;51.040;13.782;2024-02-23T05:33:37;98278.25;;;11.70;51.98
33506;BME280;19843;51.040;13.782;2024-02-23T05:36:06;98275.84;;;12.12;51.17
33506;BME280;19843;51.040;13.782;2024-02-23T05:38:34;98285.44;;;11.64;52.33
33506;BME280;19843;51.040;13.782;2024-02-23T05:41:01;98271.81;;;11.02;53.45
33506;BME280;19843;51.040;13.782;2024-02-23T05:43:29;98274.25;;;11.36;53.04
33506;BME280;19843;51.040;13.782;2024-02-23T05:45:56;98268.25;;;11.30;52.85
33506;BME280;19843;51.040;13.782;2024-02-23T05:48:26;98274.22;;;11.21;51.91
33506;BME280;19843;51.040;13.782;2024-02-23T05:50:53;98290.59;;;11.30;51.38
33506;BME280;19843;51.040;13.782;2024-02-23T05:53:21;98291.72;;;11.04;50.92
33506;BME280;19843;51.040;13.782;2024-02-23T05:55:48;98289.75;;;11.08;51.84
33506;BME280;19843;51.040;13.782;2024-02-23T05:58:16;98301.34;;;11.24;49.76
33506;BME280;19843;51.040;13.782;2024-02-23T06:00:43;98310.44;;;10.96;49.34
33506;BME280;19843;51.040;13.782;2024-02-23T06:03:11;98308.53;;;11.29;49.24
33506;BME280;19843;51.040;13.782;2024-02-23T06:05:40;98309.28;;;10.97;49.31
33506;BME280;19843;51.040;13.782;2024-02-23T06:08:08;98320.44;;;10.97;49.13
33506;BME280;19843;51.040;13.782;2024-02-23T06:10:35;98321.59;;;10.89;49.17
33506;BME280;19843;51.040;13.782;2024-02-23T06:13:04;98345.16;;;11.06;48.86
33506;BME280;19843;51.040;13.782;2024-02-23T06:15:31;98344.28;;;10.81;48.74
33506;BME280;19843;51.040;13.782;2024-02-23T06:17:59;98342.34;;;10.88;49.04
33506;BME280;19843;51.040;13.782;2024-02-23T06:20:26;98342.03;;;11.11;49.20
33506;BME280;19843;51.040;13.782;2024-02-23T06:22:55;98344.72;;;10.83;49.08
33506;BME280;19843;51.040;13.782;2024-02-23T06:25:23;98363.09;;;10.94;48.90
33506;BME280;19843;51.040;13.782;2024-02-23T06:27:50;98370.69;;;11.01;49.35
33506;BME280;19843;51.040;13.782;2024-02-23T06:30:18;98370.22;;;10.85;49.50
33506;BME280;19843;51.040;13.782;2024-02-23T06:32:45;98375.09;;;11.06;48.33
33506;BME280;19843;51.040;13.782;2024-02-23T06:35:13;98374.59;;;10.86;49.11
33506;BME280;19843;51.040;13.782;2024-02-23T06:37:41;98374.38;;;11.34;49.71
33506;BME280;19843;51.040;13.782;2024-02-23T06:40:10;98374.81;;;11.43;48.58
33506;BME280;19843;51.040;13.782;2024-02-23T06:42:38;98366.53;;;11.82;49.09
33506;BME280;19843;51.040;13.782;2024-02-23T06:45:06;98378.03;;;11.52;49.34
33506;BME280;19843;51.040;13.782;2024-02-23T06:47:34;98370.66;;;10.94;48.45
33506;BME280;19843;51.040;13.782;2024-02-23T06:50:02;98377.00;;;10.84;49.32
33506;BME280;19843;51.040;13.782;2024-02-23T06:52:30;98377.66;;;10.63;51.01
33506;BME280;19843;51.040;13.782;2024-02-23T06:54:59;98383.91;;;11.15;49.38
33506;BME280;19843;51.040;13.782;2024-02-23T06:57:28;98377.59;;;11.36;49.72
33506;BME280;19843;51.040;13.782;2024-02-23T06:59:57;98383.13;;;11.18;49.66
33506;BME280;19843;51.040;13.782;2024-02-23T07:02:24;98381.34;;;10.74;49.54
33506;BME280;19843;51.040;13.782;2024-02-23T07:04:52;98382.41;;;11.53;49.48
33506;BME280;19843;51.040;13.782;2024-02-23T07:07:21;98374.72;;;11.14;50.75
33506;BME280;19843;51.040;13.782;2024-02-23T07:09:50;98370.88;;;11.69;48.64
33506;BME280;19843;51.040;13.782;2024-02-23T07:12:18;98379.28;;;11.69;50.13
33506;BME280;19843;51.040;13.782;2024-02-23T07:14:47;98372.13;;;12.21;48.49
33506;BME280;19843;51.040;13.782;2024-02-23T07:17:16;98388.47;;;11.80;48.80
33506;BME280;19843;51.040;13.782;2024-02-23T07:19:44;98403.75;;;10.95;50.37
33506;BME280;19843;51.040;13.782;2024-02-23T07:22:11;98398.97;;;10.96;50.25
33506;BME280;19843;51.040;13.782;2024-02-23T07:24:39;98410.50;;;10.84;51.10
33506;BME280;19843;51.040;13.782;2024-02-23T07:27:07;98418.91;;;10.94;50.63
33506;BME280;19843;51.040;13.782;2024-02-23T07:29:34;98428.78;;;11.68;49.58
33506;BME280;19843;51.040;13.782;2024-02-23T07:32:04;98427.59;;;11.73;49.99
33506;BME280;19843;51.040;13.782;2024-02-23T07:34:32;98427.31;;;10.98;49.82
33506;BME280;19843;51.040;13.782;2024-02-23T07:37:00;98436.97;;;11.11;50.90
33506;BME280;19843;51.040;13.782;2024-02-23T07:39:27;98431.97;;;10.76;51.20
33506;BME280;19843;51.040;13.782;2024-02-23T07:41:54;98443.00;;;11.20;49.91
33506;BME280;19843;51.040;13.782;2024-02-23T07:44:22;98440.78;;;10.85;50.25
33506;BME280;19843;51.040;13.782;2024-02-23T07:46:51;98449.69;;;11.09;50.61
33506;BME280;19843;51.040;13.782;2024-02-23T07:49:22;98440.94;;;11.07;50.27
33506;BME280;19843;51.040;13.782;2024-02-23T07:51:49;98458.78;;;11.82;49.10
33506;BME280;19843;51.040;13.782;2024-02-23T07:54:17;98467.53;;;11.73;49.67
33506;BME280;19843;51.040;13.782;2024-02-23T07:56:44;98465.28;;;11.13;50.47
33506;BME280;19843;51.040;13.782;2024-02-23T07:59:12;98477.47;;;11.71;48.85
33506;BME280;19843;51.040;13.782;2024-02-23T08:01:39;98478.84;;;11.15;50.45
33506;BME280;19843;51.040;13.782;2024-02-23T08:04:07;98485.59;;;11.10;50.57
33506;BME280;19843;51.040;13.782;2024-02-23T08:06:36;98503.50;;;10.98;50.76
33506;BME280;19843;51.040;13.782;2024-02-23T08:09:04;98506.91;;;11.40;49.12
33506;BME280;19843;51.040;13.782;2024-02-23T08:11:32;98505.16;;;11.07;50.21
33506;BME280;19843;51.040;13.782;2024-02-23T08:14:02;98500.66;;;10.95;50.21
33506;BME280;19843;51.040;13.782;2024-02-23T08:16:30;98504.44;;;11.24;50.36
33506;BME280;19843;51.040;13.782;2024-02-23T08:18:57;98496.09;;;11.31;50.19
33506;BME280;19843;51.040;13.782;2024-02-23T08:21:25;98503.00;;;10.86;50.31
33506;BME280;19843;51.040;13.782;2024-02-23T08:23:54;98493.22;;;11.13;49.42
33506;BME280;19843;51.040;13.782;2024-02-23T08:26:21;98495.06;;;10.88;49.73
33506;BME280;19843;51.040;13.782;2024-02-23T08:28:49;98488.34;;;11.83;48.29
33506;BME280;19843;51.040;13.782;2024-02-23T08:31:16;98486.34;;;11.00;49.51
33506;BME280;19843;51.040;13.782;2024-02-23T08:33:44;98482.78;;;11.03;50.21
33506;BME280;19843;51.040;13.782;2024-02-23T08:36:13;98485.59;;;11.07;50.37
33506;BME280;19843;51.040;13.782;2024-02-23T08:38:41;98489.78;;;11.48;49.61
33506;BME280;19843;51.040;13.782;2024-02-23T08:41:10;98486.78;;;11.96;49.33
33506;BME280;19843;51.040;13.782;2024-02-23T08:43:37;98486.16;;;11.37;49.51
33506;BME280;19843;51.040;13.782;2024-02-23T08:46:05;98484.78;;;11.02;50.05
33506;BME280;19843;51.040;13.782;2024-02-23T08:48:35;98490.47;;;11.24;49.87
33506;BME280;19843;51.040;13.782;2024-02-23T08:51:03;98485.03;;;11.56;49.67
33506;BME280;19843;51.040;13.782;2024-02-23T08:53:31;98478.81;;;12.20;48.55
33506;BME280;19843;51.040;13.782;2024-02-23T08:55:58;98482.31;;;11.77;48.91
33506;BME280;19843;51.040;13.782;2024-02-23T08:58:28;98483.50;;;11.73;49.50
33506;BME280;19843;51.040;13.782;2024-02-23T09:00:55;98499.00;;;11.60;49.01
33506;BME280;19843;51.040;13.782;2024-02-23T09:03:23;98504.00;;;12.52;48.49
33506;BME280;19843;51.040;13.782;2024-02-23T09:05:50;98508.00;;;12.94;46.83
33506;BME280;19843;51.040;13.782;2024-02-23T09:08:17;98514.31;;;13.33;47.77
33506;BME280;19843;51.040;13.782;2024-02-23T09:10:45;98525.94;;;13.39;45.85
33506;BME280;19843;51.040;13.782;2024-02-23T09:13:12;98522.00;;;12.40;46.72
33506;BME280;19843;51.040;13.782;2024-02-23T09:15:43;98525.16;;;13.24;46.08
33506;BME280;19843;51.040;13.782;2024-02-23T09:18:10;98527.59;;;12.79;48.23
33506;BME280;19843;51.040;13.782;2024-02-23T09:20:37;98526.28;;;13.55;46.08
33506;BME280;19843;51.040;13.782;2024-02-23T09:23:05;98540.34;;;13.38;45.68
33506;BME280;19843;51.040;13.782;2024-02-23T09:25:32;98538.59;;;13.87;45.25
33506;BME280;19843;51.040;13.782;2024-02-23T09:28:00;98545.88;;;11.95;48.31
33506;BME280;19843;51.040;13.782;2024-02-23T09:30:27;98543.22;;;12.88;47.48
33506;BME280;19843;51.040;13.782;2024-02-23T09:32:56;98553.97;;;13.32;45.88
33506;BME280;19843;51.040;13.782;2024-02-23T09:35:24;98548.00;;;12.59;46.94
33506;BME280;19843;51.040;13.782;2024-02-23T09:37:52;98552.41;;;12.85;48.19
33506;BME280;19843;51.040;13.782;2024-02-23T09:40:19;98534.69;;;13.59;45.48
33506;BME280;19843;51.040;13.782;2024-02-23T09:42:55;98539.22;;;12.92;47.32
33506;BME280;19843;51.040;13.782;2024-02-23T09:45:23;98535.53;;;13.38;46.61
33506;BME280;19843;51.040;13.782;2024-02-23T09:47:53;98532.38;;;12.43;47.58
33506;BME280;19843;51.040;13.782;2024-02-23T09:50:24;98546.66;;;11.95;47.27
33506;BME280;19843;51.040;13.782;2024-02-23T09:52:52;98539.56;;;13.16;45.88
33506;BME280;19843;51.040;13.782;2024-02-23T09:55:21;98534.94;;;13.86;44.94
33506;BME280;19843;51.040;13.782;2024-02-23T09:57:51;98523.84;;;13.61;45.06
33506;BME280;19843;51.040;13.782;2024-02-23T10:00:23;98535.16;;;13.36;44.87
33506;BME280;19843;51.040;13.782;2024-02-23T10:02:50;98516.16;;;14.53;43.96
33506;BME280;19843;51.040;13.782;2024-02-23T10:05:18;98516.09;;;14.60;43.85
33506;BME280;19843;51.040;13.782;2024-02-23T10:07:47;98527.16;;;13.24;44.39
33506;BME280;19843;51.040;13.782;2024-02-23T10:10:24;98529.25;;;14.70;43.81
33506;BME280;19843;51.040;13.782;2024-02-23T10:12:53;98536.22;;;13.74;44.29
33506;BME280;19843;51.040;13.782;2024-02-23T10:15:20;98543.47;;;13.61;44.61
33506;BME280;19843;51.040;13.782;2024-02-23T10:17:47;98545.56;;;13.39;44.72
33506;BME280;19843;51.040;13.782;2024-02-23T10:20:15;98556.69;;;13.64;43.87
33506;BME280;19843;51.040;13.782;2024-02-23T10:22:45;98563.22;;;12.82;45.15
33506;BME280;19843;51.040;13.782;2024-02-23T10:25:13;98558.00;;;12.63;45.07
33506;BME280;19843;51.040;13.782;2024-02-23T10:27:41;98565.59;;;13.27;45.30
33506;BME280;19843;51.040;13.782;2024-02-23T10:30:09;98564.00;;;13.12;45.25
33506;BME280;19843;51.040;13.782;2024-02-23T10:32:38;98564.41;;;13.06;45.10
33506;BME280;19843;51.040;13.782;2024-02-23T10:35:10;98574.75;;;13.38;44.92
33506;BME280;19843;51.040;13.782;2024-02-23T10:37:37;98584.75;;;13.43;44.80
33506;BME280;19843;51.040;13.782;2024-02-23T10:40:06;98576.38;;;12.50;45.58
33506;BME280;19843;51.040;13.782;2024-02-23T10:42:38;98590.28;;;13.75;42.84
33506;BME280;19843;51.040;13.782;2024-02-23T10:45:07;98597.38;;;14.12;43.61
33506;BME280;19843;51.040;13.782;2024-02-23T10:47:35;98591.53;;;13.63;41.36
33506;BME280;19843;51.040;13.782;2024-02-23T10:50:04;98592.28;;;13.78;42.74
33506;BME280;19843;51.040;13.782;2024-02-23T10:52:35;98589.59;;;13.10;43.50
33506;BME280;19843;51.040;13.782;2024-02-23T10:55:04;98592.75;;;13.55;43.25
33506;BME280;19843;51.040;13.782;2024-02-23T10:57:34;98592.00;;;13.44;43.83
33506;BME280;19843;51.040;13.782;2024-02-23T11:00:05;98606.31;;;13.78;42.69
33506;BME280;19843;51.040;13.782;2024-02-23T11:02:48;98621.16;;;13.57;42.63
33506;BME280;19843;51.040;13.782;2024-02-23T11:05:18;98619.59;;;12.74;43.76
33506;BME280;19843;51.040;13.782;2024-02-23T11:07:46;98628.38;;;12.76;42.45
33506;BME280;19843;51.040;13.782;2024-02-23T11:10:15;98638.81;;;12.82;43.44
33506;BME280;19843;51.040;13.782;2024-02-23T11:12:43;98623.16;;;13.71;42.07
33506;BME280;19843;51.040;13.782;2024-02-23T11:15:25;98631.03;;;14.04;40.74
33506;BME280;19843;51.040;13.782;2024-02-23T11:17:54;98626.28;;;13.94;40.62
33506;BME280;19843;51.040;13.782;2024-02-23T11:20:23;98622.31;;;12.38;42.71
33506;BME280;19843;51.040;13.782;2024-02-23T11:22:56;98624.84;;;13.25;42.34
33506;BME280;19843;51.040;13.782;2024-02-23T11:25:26;98627.59;;;13.04;41.69
33506;BME280;19843;51.040;13.782;2024-02-23T11:27:54;98631.09;;;13.90;40.76
33506;BME280;19843;51.040;13.782;2024-02-23T11:30:26;98634.84;;;13.41;41.22
33506;BME280;19843;51.040;13.782;2024-02-23T11:32:58;98627.59;;;13.47;41.13
33506;BME280;19843;51.040;13.782;2024-02-23T11:35:27;98638.81;;;13.29;42.03
33506;BME280;19843;51.040;13.782;2024-02-23T11:37:55;98628.03;;;13.06;41.24
33506;BME280;19843;51.040;13.782;2024-02-23T11:40:26;98624.81;;;13.00;43.38
33506;BME280;19843;51.040;13.782;2024-02-23T11:42:54;98613.94;;;12.42;42.85
33506;BME280;19843;51.040;13.782;2024-02-23T11:45:23;98608.41;;;13.31;42.46
33506;BME280;19843;51.040;13.782;2024-02-23T11:47:51;98610.00;;;13.28;41.47
33506;BME280;19843;51.040;13.782;2024-02-23T11:50:19;98609.53;;;13.73;39.32
33506;BME280;19843;51.040;13.782;2024-02-23T11:52:47;98606.31;;;13.67;39.86
33506;BME280;19843;51.040;13.782;2024-02-23T11:55:18;98618.78;;;13.63;41.50
33506;BME280;19843;51.040;13.782;2024-02-23T11:57:48;98619.19;;;12.65;42.77
33506;BME280;19843;51.040;13.782;2024-02-23T12:00:28;98623.44;;;14.05;40.30
33506;BME280;19843;51.040;13.782;2024-02-23T12:02:56;98614.50;;;14.28;40.53
33506;BME280;19843;51.040;13.782;2024-02-23T12:05:23;98618.34;;;13.71;40.83
33506;BME280;19843;51.040;13.782;2024-02-23T12:07:51;98602.00;;;14.50;39.67
33506;BME280;19843;51.040;13.782;2024-02-23T12:10:20;98614.78;;;12.85;43.75
33506;BME280;19843;51.040;13.782;2024-02-23T12:12:47;98622.34;;;13.74;41.18
33506;BME280;19843;51.040;13.782;2024-02-23T12:15:15;98624.44;;;13.30;41.70
33506;BME280;19843;51.040;13.782;2024-02-23T12:17:48;98610.00;;;13.46;41.03
33506;BME280;19843;51.040;13.782;2024-02-23T12:20:16;98613.13;;;12.48;42.57
33506;BME280;19843;51.040;13.782;2024-02-23T12:22:44;98626.75;;;13.75;41.15
33506;BME280;19843;51.040;13.782;2024-02-23T12:25:12;98637.22;;;13.42;41.26
33506;BME280;19843;51.040;13.782;2024-02-23T12:27:40;98629.22;;;13.12;40.22
33506;BME280;19843;51.040;13.782;2024-02-23T12:30:13;98621.19;;;13.46;40.25
33506;BME280;19843;51.040;13.782;2024-02-23T12:32:41;98626.00;;;13.42;40.32
33506;BME280;19843;51.040;13.782;2024-02-23T12:35:11;98615.22;;;13.44;40.55
33506;BME280;19843;51.040;13.782;2024-02-23T12:37:40;98615.22;;;13.41;40.33
33506;BME280;19843;51.040;13.782;2024-02-23T12:40:10;98613.22;;;13.23;39.79
33506;BME280;19843;51.040;13.782;2024-02-23T12:42:38;98613.59;;;13.54;39.69
33506;BME280;19843;51.040;13.782;2024-02-23T12:45:06;98605.22;;;13.40;39.10
33506;BME280;19843;51.040;13.782;2024-02-23T12:47:34;98596.69;;;13.72;39.06
33506;BME280;19843;51.040;13.782;2024-02-23T12:50:02;98592.38;;;13.39;40.45
33506;BME280;19843;51.040;13.782;2024-02-23T12:52:31;98593.19;;;13.32;39.65
33506;BME280;19843;51.040;13.782;2024-02-23T12:54:58;98599.59;;;13.18;39.48